createdAt,value
2018-01-10T00:00:24.526Z,6.30
2018-01-10T00:03:25.968Z,6.40
2018-01-10T00:06:27.348Z,6.40
2018-01-10T00:09:28.703Z,6.40
2018-01-10T00:12:30.052Z,6.30
2018-01-10T00:15:31.396Z,6.40
2018-01-10T00:18:33.173Z,6.30
2018-01-10T00:21:34.588Z,6.50
2018-01-10T00:24:35.990Z,6.50
2018-01-10T00:27:37.353Z,6.40
2018-01-10T00:30:38.729Z,6.50
2018-01-10T00:33:40.084Z,6.50
2018-01-10T00:36:42.170Z,6.50
2018-01-10T00:39:43.471Z,6.50
2018-01-10T00:42:44.834Z,6.60
2018-01-10T00:45:46.417Z,6.60
2018-01-10T00:48:47.759Z,6.60
2018-01-10T00:51:49.151Z,6.40
2018-01-10T00:54:50.542Z,6.60
2018-01-10T00:57:52.648Z,6.70
2018-01-10T01:00:54.198Z,6.70
2018-01-10T01:03:55.617Z,6.80
2018-01-10T01:06:57.681Z,6.80
2018-01-10T01:09:59.798Z,6.90
2018-01-10T01:13:01.173Z,6.90
2018-01-10T01:16:02.489Z,7.00
2018-01-10T01:19:04.234Z,6.70
2018-01-10T01:22:05.569Z,6.80
2018-01-10T01:25:07.671Z,6.80
2018-01-10T01:28:09.028Z,6.90
2018-01-10T01:31:10.435Z,6.90
2018-01-10T01:34:12.518Z,6.80
2018-01-10T01:37:13.893Z,6.80
2018-01-10T01:40:15.247Z,6.80
2018-01-10T01:43:16.598Z,6.90
2018-01-10T01:46:18.156Z,6.90
2018-01-10T01:49:19.481Z,6.90
2018-01-10T01:52:20.855Z,6.90
2018-01-10T01:55:22.223Z,6.70
2018-01-10T01:58:23.597Z,7.00
2018-01-10T02:01:24.930Z,7.00
2018-01-10T02:04:26.273Z,7.00
2018-01-10T02:07:27.641Z,7.00
2018-01-10T02:10:28.986Z,6.70
2018-01-10T02:13:30.349Z,6.90
2018-01-10T02:16:31.743Z,6.90
2018-01-10T02:19:33.173Z,6.90
2018-01-10T02:22:34.562Z,6.90
2018-01-10T02:25:35.946Z,6.90
2018-01-10T02:28:37.312Z,6.90
2018-01-10T02:31:39.389Z,6.90
2018-01-10T02:34:41.526Z,7.00
2018-01-10T02:37:42.880Z,6.90
2018-01-10T02:40:44.228Z,6.90
2018-01-10T02:43:45.561Z,7.00
2018-01-10T02:46:46.984Z,7.00
2018-01-10T02:49:48.366Z,7.00
2018-01-10T02:52:50.517Z,6.90
2018-01-10T02:55:51.874Z,6.70
2018-01-10T02:58:53.206Z,6.90
2018-01-10T03:01:54.578Z,7.00
2018-01-10T03:04:56.648Z,7.00
2018-01-10T03:07:57.994Z,7.00
2018-01-10T03:10:59.397Z,7.00
2018-01-10T03:14:01.479Z,7.00
2018-01-10T03:17:02.818Z,7.00
2018-01-10T03:20:04.895Z,6.90
2018-01-10T03:23:06.256Z,7.00
2018-01-10T03:26:07.603Z,6.90
2018-01-10T03:29:08.998Z,6.70
2018-01-10T03:32:10.357Z,6.90
2018-01-10T03:35:11.719Z,6.90
2018-01-10T03:38:13.068Z,6.60
2018-01-10T03:41:15.155Z,6.90
2018-01-10T03:44:16.637Z,6.90
2018-01-10T03:47:17.990Z,6.90
2018-01-10T03:50:19.327Z,6.90
2018-01-10T03:53:20.641Z,6.80
2018-01-10T03:56:22.078Z,6.80
2018-01-10T03:59:23.435Z,6.70
2018-01-10T04:02:24.811Z,6.80
2018-01-10T04:05:26.906Z,6.90
2018-01-10T04:08:28.214Z,6.70
2018-01-10T04:11:30.364Z,6.90
2018-01-10T04:14:31.820Z,6.90
2018-01-10T04:17:33.206Z,6.90
2018-01-10T04:20:34.563Z,6.80
2018-01-10T04:23:35.917Z,6.80
2018-01-10T04:26:37.252Z,6.90
2018-01-10T04:29:38.710Z,6.90
2018-01-10T04:32:40.097Z,6.90
2018-01-10T04:35:41.420Z,6.90
2018-01-10T04:38:42.770Z,6.80
2018-01-10T04:41:44.230Z,6.70
2018-01-10T04:44:52.662Z,6.70
2018-01-10T04:47:54.157Z,6.80
2018-01-10T04:50:56.279Z,6.60
2018-01-10T04:53:57.651Z,6.70
2018-01-10T04:56:59.022Z,6.70
2018-01-10T05:00:00.378Z,6.60
2018-01-10T05:03:01.681Z,6.80
2018-01-10T05:06:03.080Z,6.90
2018-01-10T05:09:04.437Z,6.80
2018-01-10T05:12:06.637Z,6.70
2018-01-10T05:15:08.099Z,6.50
2018-01-10T05:18:09.477Z,6.70
2018-01-10T05:21:10.865Z,6.50
2018-01-10T05:24:13.083Z,6.70
2018-01-10T05:27:14.579Z,6.80
2018-01-10T05:30:16.663Z,6.70
2018-01-10T05:33:18.781Z,6.70
2018-01-10T05:36:20.154Z,6.70
2018-01-10T05:39:21.576Z,6.40
2018-01-10T05:42:22.946Z,6.60
2018-01-10T05:45:24.328Z,6.60
2018-01-10T05:48:26.460Z,6.50
2018-01-10T05:51:27.776Z,6.50
2018-01-10T05:54:29.178Z,6.20
2018-01-10T05:57:30.534Z,6.30
2018-01-10T06:00:31.917Z,6.30
2018-01-10T06:03:33.294Z,6.40
2018-01-10T06:06:34.686Z,6.30
2018-01-10T06:09:36.065Z,6.40
2018-01-10T06:12:37.397Z,6.40
2018-01-10T06:15:39.566Z,6.40
2018-01-10T06:18:41.719Z,6.40
2018-01-10T06:21:43.096Z,6.40
2018-01-10T06:24:45.195Z,6.60
2018-01-10T06:27:46.496Z,6.60
2018-01-10T06:30:48.593Z,6.70
2018-01-10T06:33:49.957Z,6.70
2018-01-10T06:36:51.369Z,6.70
2018-01-10T06:39:53.563Z,6.80
2018-01-10T06:43:01.882Z,6.70
2018-01-10T06:46:03.330Z,6.90
2018-01-10T06:49:04.694Z,6.90
2018-01-10T06:52:06.122Z,6.90
2018-01-10T06:55:08.213Z,6.80
2018-01-10T06:58:09.571Z,7.00
2018-01-10T07:01:10.952Z,7.00
2018-01-10T07:04:12.331Z,6.90
2018-01-10T07:07:14.419Z,7.00
2018-01-10T07:10:15.768Z,7.00
2018-01-10T07:13:17.180Z,6.90
2018-01-10T07:16:18.506Z,7.00
2018-01-10T07:19:20.637Z,7.10
2018-01-10T07:22:21.976Z,7.10
2018-01-10T07:25:24.075Z,7.50
2018-01-10T07:28:25.456Z,7.50
2018-01-10T07:31:26.831Z,7.40
2018-01-10T07:34:28.989Z,7.30
2018-01-10T07:37:30.347Z,7.30
2018-01-10T07:40:32.442Z,7.20
2018-01-10T07:43:33.814Z,7.20
2018-01-10T07:46:35.233Z,7.20
2018-01-10T07:49:37.362Z,7.30
2018-01-10T07:52:38.724Z,7.10
2018-01-10T07:55:40.103Z,7.30
2018-01-10T07:58:42.161Z,7.20
2018-01-10T08:01:44.274Z,7.20
2018-01-10T08:04:45.613Z,7.20
2018-01-10T08:07:47.027Z,7.20
2018-01-10T08:10:49.138Z,7.20
2018-01-10T08:13:50.486Z,7.20
2018-01-10T08:16:52.114Z,7.80
2018-01-10T08:19:54.234Z,7.60
2018-01-10T08:22:55.582Z,7.60
2018-01-10T08:25:56.940Z,7.50
2018-01-10T08:28:58.339Z,7.40
2018-01-10T08:32:00.413Z,7.40
2018-01-10T08:35:01.812Z,7.40
2018-01-10T08:38:03.165Z,7.50
2018-01-10T08:41:04.455Z,7.30
2018-01-10T08:44:05.811Z,7.50
2018-01-10T08:47:07.410Z,7.50
2018-01-10T08:50:08.822Z,7.40
2018-01-10T08:53:10.153Z,7.50
2018-01-10T08:56:12.239Z,7.60
2018-01-10T08:59:13.601Z,7.60
2018-01-10T09:02:14.950Z,7.60
2018-01-10T09:05:16.322Z,7.50
2018-01-10T09:08:17.582Z,7.70
2018-01-10T09:11:18.961Z,7.70
2018-01-10T09:14:21.050Z,7.70
2018-01-10T09:17:23.113Z,7.80
2018-01-10T09:20:25.195Z,7.80
2018-01-10T09:23:26.555Z,7.90
2018-01-10T09:26:27.950Z,7.80
2018-01-10T09:29:29.324Z,7.80
2018-01-10T09:32:31.438Z,7.90
2018-01-10T09:35:32.811Z,7.90
2018-01-10T09:38:41.147Z,7.80
2018-01-10T09:41:42.521Z,7.80
2018-01-10T09:44:43.890Z,7.80
2018-01-10T09:47:45.283Z,7.90
2018-01-10T09:50:46.601Z,7.60
2018-01-10T09:53:47.950Z,7.70
2018-01-10T09:56:49.324Z,7.80
2018-01-10T09:59:50.674Z,7.80
2018-01-10T10:02:52.047Z,7.80
2018-01-10T10:05:53.366Z,7.80
2018-01-10T10:08:54.727Z,8.00
2018-01-10T10:11:56.092Z,7.80
2018-01-10T10:14:57.553Z,7.90
2018-01-10T10:17:58.883Z,8.00
2018-01-10T10:21:00.235Z,8.00
2018-01-10T10:24:01.573Z,8.00
2018-01-10T10:27:02.968Z,8.10
2018-01-10T10:30:05.048Z,8.00
2018-01-10T10:33:06.397Z,7.80
2018-01-10T10:36:08.537Z,8.00
2018-01-10T10:39:09.908Z,8.00
2018-01-10T10:42:12.018Z,8.10
2018-01-10T10:45:13.428Z,8.10
2018-01-10T10:48:15.499Z,8.10
2018-01-10T10:51:16.878Z,8.10
2018-01-10T10:54:18.489Z,8.10
2018-01-10T10:57:19.854Z,8.20
2018-01-10T11:00:21.953Z,8.20
2018-01-10T11:03:23.346Z,8.10
2018-01-10T11:06:24.783Z,8.10
2018-01-10T11:09:26.114Z,8.30
2018-01-10T11:12:27.496Z,8.40
2018-01-10T11:15:28.832Z,8.40
2018-01-10T11:18:30.206Z,8.50
2018-01-10T11:21:31.569Z,8.70
2018-01-10T11:24:33.647Z,8.50
2018-01-10T11:27:35.024Z,8.50
2018-01-10T11:30:36.415Z,8.50
2018-01-10T11:33:37.792Z,8.50
2018-01-10T11:36:39.875Z,8.60
2018-01-10T11:39:41.286Z,8.50
2018-01-10T11:42:42.667Z,8.60
2018-01-10T11:45:44.799Z,8.70
2018-01-10T11:48:46.182Z,8.60
2018-01-10T11:51:48.282Z,8.70
2018-01-10T11:54:49.789Z,8.50
2018-01-10T11:57:51.137Z,8.60
2018-01-10T12:00:52.502Z,8.80
2018-01-10T12:03:54.597Z,8.80
2018-01-10T12:06:55.935Z,8.50
2018-01-10T12:09:57.277Z,8.70
2018-01-10T12:12:59.358Z,8.60
2018-01-10T12:16:00.717Z,8.60
2018-01-10T12:19:02.076Z,8.40
2018-01-10T12:22:03.422Z,8.60
2018-01-10T12:25:04.755Z,8.50
2018-01-10T12:28:06.106Z,8.60
2018-01-10T12:31:07.463Z,8.60
2018-01-10T12:34:08.800Z,8.70
2018-01-10T12:37:10.153Z,8.70
2018-01-10T12:40:11.517Z,8.70
2018-01-10T12:43:12.898Z,8.80
2018-01-10T12:46:14.243Z,8.70
2018-01-10T12:49:16.397Z,8.90
2018-01-10T12:52:17.904Z,8.90
2018-01-10T12:55:19.561Z,8.90
2018-01-10T12:58:21.367Z,8.90
2018-01-10T13:01:22.785Z,8.80
2018-01-10T13:04:24.914Z,8.80
2018-01-10T13:07:26.263Z,8.60
2018-01-10T13:10:29.048Z,8.70
2018-01-10T13:13:30.640Z,8.70
2018-01-10T13:16:32.180Z,8.70
2018-01-10T13:19:35.491Z,8.60
2018-01-10T13:22:37.574Z,8.60
2018-01-10T13:25:40.158Z,8.70
2018-01-10T13:28:42.072Z,8.70
2018-01-10T13:31:44.207Z,8.60
2018-01-10T13:34:45.555Z,8.60
2018-01-10T13:37:48.112Z,8.60
2018-01-10T13:40:51.459Z,8.60
2018-01-10T13:43:56.152Z,8.60
2018-01-10T13:46:57.527Z,8.40
2018-01-10T13:49:58.897Z,8.50
2018-01-10T13:53:01.174Z,8.60
2018-01-10T13:56:02.503Z,8.60
2018-01-10T13:59:03.842Z,8.70
2018-01-10T14:02:05.214Z,8.60
2018-01-10T14:05:07.274Z,8.60
2018-01-10T14:08:08.662Z,8.60
2018-01-10T14:11:10.780Z,8.70
2018-01-10T14:14:12.389Z,8.50
2018-01-10T14:17:14.449Z,8.80
2018-01-10T14:20:16.538Z,8.70
2018-01-10T14:23:17.851Z,8.70
2018-01-10T14:26:19.194Z,8.80
2018-01-10T14:29:20.599Z,8.70
2018-01-10T14:32:21.941Z,8.70
2018-01-10T14:35:23.295Z,8.70
2018-01-10T14:38:24.621Z,8.70
2018-01-10T14:41:26.721Z,8.70
2018-01-10T14:44:28.055Z,8.60
2018-01-10T14:47:29.451Z,8.70
2018-01-10T14:50:30.791Z,8.50
2018-01-10T14:53:32.100Z,8.60
2018-01-10T14:56:33.443Z,8.60
2018-01-10T14:59:35.524Z,8.60
2018-01-10T15:02:37.600Z,8.70
2018-01-10T15:05:38.942Z,8.70
2018-01-10T15:08:40.304Z,8.80
2018-01-10T15:11:41.756Z,8.70
2018-01-10T15:14:43.094Z,8.60
2018-01-10T15:17:44.419Z,8.50
2018-01-10T15:20:45.746Z,8.60
2018-01-10T15:23:47.113Z,8.60
2018-01-10T15:26:48.445Z,8.60
2018-01-10T15:29:49.805Z,8.60
2018-01-10T15:32:51.114Z,8.50
2018-01-10T15:35:52.478Z,8.50
2018-01-10T15:38:53.796Z,8.30
2018-01-10T15:41:55.251Z,8.60
2018-01-10T15:44:56.614Z,8.40
2018-01-10T15:47:57.970Z,8.50
2018-01-10T15:50:59.318Z,8.50
2018-01-10T15:54:00.631Z,8.50
2018-01-10T15:57:02.845Z,8.40
2018-01-10T16:00:04.219Z,8.20
2018-01-10T16:03:05.610Z,8.40
2018-01-10T16:06:07.763Z,8.20
2018-01-10T16:09:09.830Z,8.30
2018-01-10T16:12:11.214Z,8.30
2018-01-10T16:15:12.542Z,8.40
2018-01-10T16:18:14.642Z,8.30
2018-01-10T16:21:16.155Z,8.30
2018-01-10T16:24:18.267Z,8.20
2018-01-10T16:27:19.633Z,8.20
2018-01-10T16:30:20.967Z,8.20
2018-01-10T16:33:22.289Z,8.30
2018-01-10T16:36:24.328Z,8.20
2018-01-10T16:39:25.727Z,8.20
2018-01-10T16:42:27.074Z,8.20
2018-01-10T16:45:28.490Z,8.20
2018-01-10T16:48:29.851Z,8.10
2018-01-10T16:51:31.919Z,8.00
2018-01-10T16:54:34.060Z,8.00
2018-01-10T16:57:35.421Z,8.00
2018-01-10T17:00:36.789Z,7.90
2018-01-10T17:03:38.854Z,8.10
2018-01-10T17:06:40.915Z,8.00
2018-01-10T17:09:42.278Z,8.10
2018-01-10T17:12:44.349Z,8.10
2018-01-10T17:15:46.434Z,8.20
2018-01-10T17:18:47.791Z,8.20
2018-01-10T17:21:49.143Z,8.20
2018-01-10T17:24:50.542Z,8.10
2018-01-10T17:27:51.878Z,8.20
2018-01-10T17:30:53.378Z,8.10
2018-01-10T17:33:54.741Z,8.10
2018-01-10T17:36:56.087Z,7.90
2018-01-10T17:39:57.423Z,8.10
2018-01-10T17:43:00.194Z,8.10
2018-01-10T17:46:03.307Z,7.90
2018-01-10T17:49:05.142Z,8.00
2018-01-10T17:52:06.629Z,7.90
2018-01-10T17:55:08.840Z,7.80
2018-01-10T17:58:10.602Z,7.70
2018-01-10T18:01:12.879Z,7.60
2018-01-10T18:04:15.089Z,7.60
2018-01-10T18:07:16.470Z,7.60
2018-01-10T18:10:17.889Z,7.50
2018-01-10T18:13:19.370Z,7.80
2018-01-10T18:16:20.687Z,7.70
2018-01-10T18:19:22.039Z,7.50
2018-01-10T18:22:23.462Z,7.50
2018-01-10T18:25:24.793Z,7.40
2018-01-10T18:28:26.127Z,7.40
2018-01-10T18:31:27.515Z,7.20
2018-01-10T18:34:28.837Z,7.20
2018-01-10T18:37:30.242Z,7.20
2018-01-10T18:40:31.730Z,7.20
2018-01-10T18:43:33.058Z,7.20
2018-01-10T18:46:34.807Z,7.20
2018-01-10T18:49:36.928Z,7.10
2018-01-10T18:52:38.455Z,7.10
2018-01-10T18:55:40.515Z,7.00
2018-01-10T18:58:42.617Z,7.00
2018-01-10T19:01:44.543Z,7.00
2018-01-10T19:04:47.553Z,6.90
2018-01-10T19:07:49.838Z,6.90
2018-01-10T19:10:58.402Z,7.00
2018-01-10T19:13:59.845Z,6.90
2018-01-10T19:17:02.356Z,7.00
2018-01-10T19:20:04.730Z,6.90
2018-01-10T19:23:06.827Z,6.70
2018-01-10T19:26:10.056Z,6.70
2018-01-10T19:29:11.468Z,6.60
2018-01-10T19:32:13.712Z,6.60
2018-01-10T19:35:15.773Z,6.60
2018-01-10T19:38:17.565Z,6.50
2018-01-10T19:41:18.919Z,6.40
2018-01-10T19:44:22.526Z,6.10
2018-01-10T19:47:26.130Z,6.40
2018-01-10T19:50:29.823Z,6.30
2018-01-10T19:53:31.178Z,6.50
2018-01-10T19:56:33.161Z,6.60
2018-01-10T19:59:34.725Z,6.40
2018-01-10T20:02:36.858Z,6.40
2018-01-10T20:05:41.134Z,6.40
2018-01-10T20:08:43.561Z,6.40
2018-01-10T20:11:45.629Z,6.40
2018-01-10T20:14:47.716Z,6.40
2018-01-10T20:17:49.694Z,6.40
2018-01-10T20:20:53.404Z,6.30
2018-01-10T20:23:54.720Z,6.50
2018-01-10T20:26:56.128Z,6.50
2018-01-10T20:29:57.455Z,6.50
2018-01-10T20:32:59.464Z,6.50
2018-01-10T20:36:01.172Z,6.70
2018-01-10T20:39:03.947Z,6.40
2018-01-10T20:42:05.334Z,6.60
2018-01-10T20:45:06.690Z,6.50
2018-01-10T20:48:08.037Z,6.60
2018-01-10T20:51:09.525Z,6.50
2018-01-10T20:54:11.578Z,6.80
2018-01-10T20:57:14.297Z,6.70
2018-01-10T21:00:16.318Z,6.70
2018-01-10T21:03:20.642Z,6.70
2018-01-10T21:06:23.791Z,6.80
2018-01-10T21:09:25.354Z,6.90
2018-01-10T21:12:27.505Z,6.90
2018-01-10T21:15:29.318Z,6.80
2018-01-10T21:18:30.768Z,7.00
2018-01-10T21:21:32.105Z,7.00
2018-01-10T21:24:33.426Z,7.00
2018-01-10T21:27:34.769Z,7.00
2018-01-10T21:30:37.952Z,7.10
2018-01-10T21:33:39.657Z,7.40
2018-01-10T21:36:44.295Z,7.10
2018-01-10T21:39:46.007Z,7.10
2018-01-10T21:42:50.120Z,7.00
2018-01-10T21:45:52.888Z,7.00
2018-01-10T21:48:55.130Z,7.00
2018-01-10T21:51:56.735Z,7.10
2018-01-10T21:54:58.071Z,7.00
2018-01-10T21:57:59.406Z,7.10
2018-01-10T22:01:02.062Z,7.10
2018-01-10T22:04:03.466Z,6.90
2018-01-10T22:07:04.772Z,7.10
2018-01-10T22:10:06.854Z,7.10
2018-01-10T22:13:08.299Z,7.10
2018-01-10T22:16:09.715Z,7.20
2018-01-10T22:19:11.077Z,7.10
2018-01-10T22:22:12.408Z,7.20
2018-01-10T22:25:13.810Z,7.20
2018-01-10T22:28:16.005Z,7.20
2018-01-10T22:31:17.425Z,7.20
2018-01-10T22:34:19.592Z,7.20
2018-01-10T22:37:21.744Z,7.20
2018-01-10T22:40:23.135Z,7.30
2018-01-10T22:43:24.734Z,7.40
2018-01-10T22:46:26.129Z,7.50
2018-01-10T22:49:28.244Z,7.40
2018-01-10T22:52:29.606Z,7.40
2018-01-10T22:55:30.949Z,7.40
2018-01-10T22:58:32.321Z,7.30
2018-01-10T23:01:33.698Z,7.60
2018-01-10T23:04:35.771Z,7.40
2018-01-10T23:07:37.164Z,7.20
2018-01-10T23:10:39.232Z,7.40
2018-01-10T23:13:40.588Z,7.30
2018-01-10T23:16:41.950Z,7.20
2018-01-10T23:19:43.285Z,7.30
2018-01-10T23:22:44.645Z,7.20
2018-01-10T23:25:45.991Z,7.20
2018-01-10T23:28:47.436Z,7.40
2018-01-10T23:31:48.780Z,7.40
2018-01-10T23:35:05.101Z,7.40
2018-01-10T23:38:06.475Z,7.40
2018-01-10T23:41:07.786Z,7.50
2018-01-10T23:44:09.226Z,7.40
2018-01-10T23:47:10.551Z,7.50
2018-01-10T23:50:11.942Z,7.60
2018-01-10T23:53:13.257Z,7.50
2018-01-10T23:56:14.609Z,7.50
2018-01-10T23:59:15.976Z,7.40
